Time;durP1;ratioP1;P1;durP2;ratioP2;P2;SDS_P1;SDS_P2;PMS_P1;PMS_P2;Temp;Humidity;BMP_temperature;BMP_pressure;BME280_temperature;BME280_humidity;BME280_pressure;Samples;Min_cycle;Max_cycle;Signal;HPM_P1;HPM_P2
2023/10/05 00:01:27;;;;;;;43.65;3.42;;;;;;;20.96;50.23;100225.16;7310743;19;128840;-36
2023/10/05 00:03:53;;;;;;;110.63;6.85;;;;;;;20.98;50.44;100221.47;7308378;19;131438;-38
2023/10/05 00:06:28;;;;;;;72.85;4.75;;;;;;;20.97;50.78;100214.59;7307912;19;131203;-35
2023/10/05 00:08:56;;;;;;;57.55;4.25;;;;;;;20.87;50.46;100197.94;7307813;19;129535;-35
2023/10/05 00:11:45;;;;;;;43.35;3.35;;;;;;;21.07;50.15;100219.94;7308615;19;129977;-36
2023/10/05 00:14:10;;;;;;;24.35;2.65;;;;;;;21.01;50.00;100205.53;7309735;19;130597;-36
2023/10/05 00:16:37;;;;;;;59.13;4.22;;;;;;;21.12;50.50;100208.13;7307462;19;130402;-37
2023/10/05 00:19:13;;;;;;;94.90;6.03;;;;;;;21.09;51.23;100203.16;7305360;19;129105;-36
2023/10/05 00:21:50;;;;;;;50.97;4.10;;;;;;;21.12;50.77;100202.91;7311203;19;131078;-36
2023/10/05 00:24:25;;;;;;;45.05;3.75;;;;;;;21.13;51.30;100201.13;7311593;19;130171;-35
2023/10/05 00:26:50;;;;;;;60.90;4.55;;;;;;;21.10;50.96;100204.84;7306191;19;130506;-35
2023/10/05 00:29:27;;;;;;;45.63;3.38;;;;;;;21.08;51.06;100211.13;7310252;19;129326;-35
2023/10/05 00:31:52;;;;;;;56.00;4.65;;;;;;;21.05;50.96;100214.81;7307139;19;129191;-35
2023/10/05 00:36:49;;;;;;;70.93;5.53;;;;;;;21.00;51.00;100203.91;7309054;19;129498;-37
2023/10/05 00:39:19;;;;;;;57.92;4.57;;;;;;;20.95;52.00;100200.78;7308839;19;129382;-36
2023/10/05 00:41:46;;;;;;;55.08;4.13;;;;;;;20.97;52.14;100203.28;7308036;19;129082;-37
2023/10/05 00:44:12;;;;;;;132.98;8.13;;;;;;;20.94;51.83;100199.09;7306944;19;131211;-35
2023/10/05 00:46:39;;;;;;;59.28;4.95;;;;;;;20.93;51.46;100197.44;7304896;19;131882;-35
2023/10/05 00:49:16;;;;;;;37.42;3.53;;;;;;;20.94;51.95;100203.53;7311896;19;129177;-36
2023/10/05 00:51:52;;;;;;;34.35;3.13;;;;;;;20.93;51.25;100205.28;7314122;19;129046;-36
2023/10/05 00:54:22;;;;;;;40.88;3.97;;;;;;;20.91;51.84;100204.56;7315423;19;129510;-35
2023/10/05 00:56:48;;;;;;;111.40;6.82;;;;;;;20.91;52.28;100201.16;7314215;19;130595;-36
2023/10/05 00:59:15;;;;;;;34.58;3.47;;;;;;;20.91;51.95;100204.56;7317366;19;129316;-35
2023/10/05 01:02:03;;;;;;;;;;;;;;;20.93;53.75;100199.22;7316109;19;129076;-34
2023/10/05 01:04:53;;;;;;;22.10;2.75;;;;;;;20.91;51.63;100195.94;7315964;19;130720;-35
2023/10/05 01:10:42;;;;;;;63.15;5.00;;;;;;;20.89;52.88;100198.63;7314470;19;129172;-36
2023/10/05 01:12:45;;;;;;;30.45;3.60;;;;;;;20.89;52.43;100195.22;7313051;19;130533;-33
2023/10/05 01:15:16;;;;;;;38.00;3.42;;;;;;;20.89;52.18;100201.25;7314365;19;130956;-35
2023/10/05 01:17:42;;;;;;;67.25;4.65;;;;;;;20.88;52.05;100199.59;7311579;19;130741;-37
2023/10/05 01:22:40;;;;;;;45.08;3.88;;;;;;;20.91;51.59;100199.34;7316472;19;129190;-36
2023/10/05 01:25:07;;;;;;;57.83;4.63;;;;;;;20.87;52.27;100203.16;7310924;19;130758;-35
2023/10/05 01:27:33;;;;;;;78.00;5.38;;;;;;;20.90;51.78;100195.09;7308053;19;131522;-38
2023/10/05 01:30:00;;;;;;;61.42;4.45;;;;;;;20.98;50.86;100194.50;7314409;19;133795;-36
2023/10/05 01:32:26;;;;;;;68.55;5.43;;;;;;;20.98;50.67;100194.50;7313920;19;130416;-35
2023/10/05 01:34:52;;;;;;;62.58;4.90;;;;;;;20.93;51.69;100180.94;7312625;19;131021;-35
2023/10/05 01:37:22;;;;;;;73.87;4.93;;;;;;;20.91;52.33;100188.91;7313469;19;130448;-35
2023/10/05 01:39:47;;;;;;;73.55;5.38;;;;;;;20.92;51.63;100177.50;7313424;19;130022;-35
2023/10/05 01:42:14;;;;;;;35.13;3.42;;;;;;;20.95;51.92;100173.81;7314914;19;130717;-35
2023/10/05 01:44:47;;;;;;;22.80;2.87;;;;;;;20.88;52.00;100168.22;7313309;19;130146;-36
2023/10/05 01:47:15;;;;;;;70.50;4.97;;;;;;;20.90;51.56;100168.94;7311188;19;131096;-35
2023/10/05 01:49:41;;;;;;;57.17;4.15;;;;;;;20.87;52.16;100163.97;7315619;19;128913;-35
2023/10/05 01:52:07;;;;;;;39.05;3.63;;;;;;;20.87;51.97;100166.59;7315181;19;129679;-35
2023/10/05 01:54:34;;;;;;;40.90;3.57;;;;;;;20.72;52.03;100141.66;7314247;19;130143;-34
2023/10/05 01:57:02;;;;;;;82.70;6.25;;;;;;;20.85;52.22;100155.41;7312339;19;131669;-36
2023/10/05 01:59:28;;;;;;;58.65;4.70;;;;;;;20.86;52.15;100154.44;7312887;19;129586;-33
2023/10/05 02:01:54;;;;;;;56.53;4.57;;;;;;;20.86;51.83;100151.84;7315417;19;129709;-35
2023/10/05 02:04:22;;;;;;;19.53;3.53;;;;;;;20.85;51.96;100158.03;7315064;19;130409;-34
2023/10/05 02:06:49;;;;;;;55.63;4.22;;;;;;;20.87;51.83;100148.28;7307597;19;130431;-36
2023/10/05 02:09:19;;;;;;;62.90;4.68;;;;;;;20.85;52.19;100157.19;7314668;19;129397;-37
2023/10/05 02:11:47;;;;;;;35.28;3.47;;;;;;;20.83;52.31;100146.84;7316580;19;129379;-35
2023/10/05 02:14:12;;;;;;;39.80;3.80;;;;;;;20.88;51.72;100146.47;7313779;19;130345;-36
2023/10/05 02:16:38;;;;;;;32.35;3.63;;;;;;;20.88;51.08;100142.09;7312460;19;130264;-36
2023/10/05 02:19:05;;;;;;;100.82;6.55;;;;;;;20.85;51.14;100142.34;7311263;19;129972;-35
2023/10/05 02:21:35;;;;;;;22.77;3.22;;;;;;;20.77;50.80;100130.84;7315216;19;129403;-35
2023/10/05 02:24:10;;;;;;;74.13;5.32;;;;;;;20.92;51.13;100143.53;7313756;19;131152;-35
2023/10/05 02:26:36;;;;;;;47.63;4.00;;;;;;;20.90;50.17;100140.19;7311801;19;130236;-35
2023/10/05 02:29:13;;;;;;;107.37;7.13;;;;;;;20.93;49.65;100141.72;7311305;19;128916;-34
2023/10/05 02:31:55;;;;;;;72.57;5.22;;;;;;;20.99;49.77;100139.47;7314095;19;128993;-36
2023/10/05 02:34:20;;;;;;;75.80;5.45;;;;;;;21.00;49.97;100135.94;7313854;19;131214;-39
2023/10/05 02:36:46;;;;;;;39.08;3.80;;;;;;;20.90;50.46;100124.53;7314204;19;129637;-35
2023/10/05 02:39:11;;;;;;;67.03;5.30;;;;;;;20.98;49.62;100132.59;7313018;19;129803;-34
2023/10/05 02:41:39;;;;;;;70.75;5.38;;;;;;;20.99;50.53;100128.22;7312748;19;129717;-38
2023/10/05 02:44:17;;;;;;;88.35;6.32;;;;;;;20.85;50.79;100097.91;7314372;19;131039;-39
2023/10/05 02:46:47;;;;;;;39.38;3.97;;;;;;;20.98;50.53;100116.91;7312272;19;131068;-37
2023/10/05 02:49:15;;;;;;;28.00;4.00;;;;;;;20.96;49.87;100113.56;7312331;19;128862;-36
2023/10/05 02:51:41;;;;;;;36.85;4.10;;;;;;;20.97;50.16;100110.03;7314878;19;129058;-35
2023/10/05 02:54:10;;;;;;;78.80;5.78;;;;;;;20.96;50.04;100116.19;7312705;19;130196;-34
2023/10/05 02:56:35;;;;;;;57.40;4.97;;;;;;;20.97;50.06;100115.28;7312814;19;130400;-37
2023/10/05 02:59:07;;;;;;;88.18;6.45;;;;;;;20.94;50.29;100115.47;7309838;19;129880;-34
2023/10/05 03:01:34;;;;;;;36.17;4.30;;;;;;;20.96;50.24;100118.78;7313570;19;129933;-35
2023/10/05 03:04:09;;;;;;;66.72;5.45;;;;;;;20.99;49.53;100113.34;7312067;19;130272;-36
2023/10/05 03:06:35;;;;;;;58.72;4.78;;;;;;;20.95;49.98;100119.75;7311928;19;130392;-35
2023/10/05 03:09:07;;;;;;;56.03;5.07;;;;;;;20.99;50.17;100115.97;7311712;19;129686;-35
2023/10/05 03:11:42;;;;;;;42.00;4.35;;;;;;;20.99;50.77;100118.56;7312018;19;129987;-35
2023/10/05 03:14:11;;;;;;;46.90;4.28;;;;;;;20.97;50.61;100120.50;7312342;19;130168;-35
2023/10/05 03:16:43;;;;;;;20.02;3.10;;;;;;;20.97;50.65;100115.28;7312737;19;131115;-34
2023/10/05 03:19:15;;;;;;;100.03;6.50;;;;;;;20.96;50.75;100108.34;7312215;19;128842;-35
2023/10/05 03:21:40;;;;;;;42.75;4.30;;;;;;;20.99;49.76;100117.75;7313674;19;129200;-34
2023/10/05 03:24:13;;;;;;;59.63;5.60;;;;;;;20.97;50.80;100120.50;7312235;19;130557;-37
2023/10/05 03:26:39;;;;;;;47.17;5.03;;;;;;;20.96;50.25;100128.44;7307254;19;131523;-34
2023/10/05 03:29:04;;;;;;;87.80;6.63;;;;;;;20.97;50.30;100112.66;7308452;19;130392;-37
2023/10/05 03:31:32;;;;;;;57.20;5.27;;;;;;;20.97;50.17;100120.50;7310273;19;129019;-36
2023/10/05 03:33:57;;;;;;;66.05;5.43;;;;;;;20.93;51.32;100111.19;7312169;19;130105;-34
2023/10/05 03:36:23;;;;;;;41.25;4.18;;;;;;;20.82;51.09;100092.09;7311136;19;130251;-38
2023/10/05 03:38:57;;;;;;;102.93;6.93;;;;;;;20.88;51.60;100104.66;7309081;19;129460;-33
2023/10/05 03:41:26;;;;;;;71.15;5.82;;;;;;;20.85;51.74;100105.75;7313093;19;129325;-38
2023/10/05 03:43:55;;;;;;;37.95;4.68;;;;;;;20.82;50.90;100095.56;7314122;19;130204;-35
2023/10/05 03:46:20;;;;;;;44.28;4.57;;;;;;;20.82;51.13;100099.94;7310714;19;130685;-35
2023/10/05 03:48:46;;;;;;;39.40;4.10;;;;;;;20.69;51.89;100084.44;7310583;19;129595;-34
2023/10/05 03:51:15;;;;;;;63.53;5.25;;;;;;;20.82;51.03;100106.00;7312859;19;128898;-36
2023/10/05 03:53:41;;;;;;;42.33;4.25;;;;;;;20.83;51.76;100112.88;7312658;19;130247;-37
2023/10/05 03:56:06;;;;;;;66.40;5.65;;;;;;;20.83;51.36;100102.44;7311277;19;130426;-35
2023/10/05 03:58:34;;;;;;;57.17;4.97;;;;;;;20.83;51.74;100107.66;7309285;19;129307;-35
2023/10/05 04:00:59;;;;;;;101.57;7.03;;;;;;;20.80;50.96;100097.44;7311416;19;129242;-34
2023/10/05 04:03:25;;;;;;;25.45;3.88;;;;;;;20.81;51.47;100104.31;7311833;19;130238;-38
2023/10/05 04:05:51;;;;;;;38.78;4.18;;;;;;;20.85;51.25;100097.91;7309877;19;130374;-36
2023/10/05 04:08:17;;;;;;;45.53;4.20;;;;;;;20.81;51.90;100099.09;7308633;19;129327;-37
2023/10/05 04:10:49;;;;;;;81.47;6.10;;;;;;;20.84;51.19;100098.84;7310294;19;128874;-35
2023/10/05 04:13:20;;;;;;;36.30;3.88;;;;;;;20.81;52.40;100095.69;7312702;19;130615;-38
2023/10/05 04:15:45;;;;;;;37.92;4.15;;;;;;;20.82;51.28;100089.50;7311041;19;130201;-33
2023/10/05 04:18:11;;;;;;;35.50;3.88;;;;;;;20.88;51.63;100084.59;7307529;19;129446;-35
2023/10/05 04:20:37;;;;;;;88.38;6.55;;;;;;;20.80;51.80;100086.16;7310287;19;129259;-38
2023/10/05 04:23:03;;;;;;;46.93;4.53;;;;;;;20.83;51.59;100080.69;7309774;19;130034;-37
2023/10/05 04:25:28;;;;;;;36.13;4.57;;;;;;;20.81;51.78;100072.97;7310864;19;129549;-35
2023/10/05 04:27:54;;;;;;;33.92;4.05;;;;;;;20.73;51.59;100064.91;7308043;19;129438;-35
2023/10/05 04:30:21;;;;;;;69.43;5.30;;;;;;;20.82;51.41;100073.81;7309858;19;129270;-37
2023/10/05 04:32:46;;;;;;;;;;;;;;;20.81;53.44;100070.34;7311450;19;131081;-35
2023/10/05 04:35:21;;;;;;;55.28;4.90;;;;;;;20.84;51.99;100067.50;7309783;19;129574;-35
2023/10/05 04:37:47;;;;;;;35.72;4.05;;;;;;;20.80;51.26;100068.72;7309703;19;128922;-34
2023/10/05 04:40:15;;;;;;;88.60;6.07;;;;;;;20.83;52.04;100067.63;7311033;19;130066;-35
2023/10/05 04:42:41;;;;;;;46.22;4.60;;;;;;;20.81;51.48;100065.13;7308403;19;131019;-35
2023/10/05 04:45:12;;;;;;;63.50;5.80;;;;;;;20.80;51.88;100060.88;7309770;19;129591;-35
2023/10/05 04:47:38;;;;;;;33.85;4.22;;;;;;;20.81;51.86;100067.75;7307835;19;129863;-35
2023/10/05 04:50:05;;;;;;;55.95;5.40;;;;;;;20.80;51.78;100060.88;7309909;19;129281;-36
2023/10/05 04:52:33;;;;;;;75.07;5.55;;;;;;;20.77;52.21;100061.13;7307946;19;131096;-35
2023/10/05 04:55:13;;;;;;;50.17;5.13;;;;;;;20.78;51.59;100057.53;7309704;19;130325;-33
2023/10/05 04:57:49;;;;;;;37.85;4.38;;;;;;;20.78;51.80;100062.78;7307692;19;129230;-36
2023/10/05 05:03:56;;;;;;;40.20;4.25;;;;;;;20.80;52.05;100060.03;7309179;19;129010;-36
2023/10/05 05:06:00;;;;;;;38.63;4.93;;;;;;;20.82;51.52;100053.75;7308243;19;129248;-34
2023/10/05 05:08:26;;;;;;;35.65;3.97;;;;;;;20.80;51.64;100045.19;7307454;19;129430;-37
2023/10/05 05:10:52;;;;;;;67.77;5.50;;;;;;;20.80;52.09;100050.41;7310122;19;129507;-37
2023/10/05 05:13:20;;;;;;;39.43;4.40;;;;;;;20.80;52.23;100045.19;7308727;19;131029;-36
2023/10/05 05:15:45;;;;;;;164.55;10.57;;;;;;;20.65;51.79;100025.53;7306755;19;130432;-37
2023/10/05 05:18:14;;;;;;;60.85;5.63;;;;;;;20.77;52.12;100050.66;7301054;19;130284;-35
2023/10/05 05:20:41;;;;;;;84.82;7.10;;;;;;;20.78;51.63;100049.69;7309320;19;129153;-33
2023/10/05 05:23:07;;;;;;;75.43;6.18;;;;;;;20.82;52.05;100053.75;7309354;19;130242;-34
2023/10/05 05:25:32;;;;;;;33.57;4.23;;;;;;;20.70;51.78;100028.59;7307744;19;130994;-37
2023/10/05 05:28:01;;;;;;;37.78;4.60;;;;;;;20.81;52.29;100052.06;7306758;19;130432;-35
2023/10/05 05:30:26;;;;;;;72.35;5.75;;;;;;;20.79;51.24;100043.53;7308186;19;129687;-34
2023/10/05 05:32:56;;;;;;;14.73;3.97;;;;;;;20.80;52.09;100045.19;7309043;19;131135;-35
2023/10/05 05:35:22;;;;;;;43.90;4.72;;;;;;;20.86;51.60;100039.47;7312894;19;132204;-36
2023/10/05 05:37:48;;;;;;;41.65;5.13;;;;;;;20.87;51.81;100042.91;7313376;19;130659;-34
2023/10/05 05:40:14;;;;;;;84.53;7.00;;;;;;;20.87;51.29;100041.13;7314997;19;129114;-34
2023/10/05 05:42:40;;;;;;;41.00;4.03;;;;;;;20.86;51.58;100039.47;7315997;19;131513;-38
2023/10/05 05:45:31;;;;;;;77.18;6.55;;;;;;;20.84;52.38;100041.34;7314288;19;130313;-33
2023/10/05 05:47:55;;;;;;;41.10;4.43;;;;;;;20.82;51.89;100042.44;7312059;19;129051;-36
2023/10/05 05:50:23;;;;;;;27.88;3.80;;;;;;;20.82;51.62;100047.69;7314758;19;129031;-35
2023/10/05 05:52:51;;;;;;;57.17;5.47;;;;;;;20.65;52.09;100021.13;7315084;19;130484;-35
2023/10/05 05:55:22;;;;;;;78.55;6.82;;;;;;;20.79;51.95;100048.78;7314561;19;130399;-37
2023/10/05 05:57:51;;;;;;;68.90;6.53;;;;;;;20.82;52.04;100051.13;7309622;19;129476;-35
2023/10/05 06:00:18;;;;;;;51.83;5.22;;;;;;;20.80;51.63;100050.41;7314932;19;128780;-35
2023/10/05 06:02:44;;;;;;;38.40;4.65;;;;;;;20.70;51.35;100031.22;7313712;19;130284;-35
2023/10/05 06:05:11;;;;;;;100.40;8.10;;;;;;;20.83;51.96;100052.78;7314716;19;130430;-36
2023/10/05 06:07:38;;;;;;;43.58;5.18;;;;;;;20.77;51.56;100043.63;7312309;19;129916;-34
2023/10/05 06:10:12;;;;;;;22.88;3.80;;;;;;;20.77;52.15;100043.63;7313113;19;129511;-35
2023/10/05 06:12:41;;;;;;;56.30;5.82;;;;;;;20.76;51.40;100043.75;7313177;19;130854;-36
2023/10/05 06:15:09;;;;;;;90.43;7.40;;;;;;;20.78;51.67;100036.63;7313243;19;131225;-34
2023/10/05 06:17:35;;;;;;;65.13;6.10;;;;;;;20.66;51.83;100008.88;7310685;19;129189;-35
2023/10/05 06:20:05;;;;;;;43.17;5.22;;;;;;;20.76;51.67;100029.91;7311861;19;131057;-36
2023/10/05 06:22:31;;;;;;;53.08;5.40;;;;;;;20.76;51.10;100032.50;7311208;19;131965;-34
2023/10/05 06:24:56;;;;;;;64.93;5.38;;;;;;;20.75;52.12;100026.44;7313732;19;130514;-35
2023/10/05 06:27:21;;;;;;;96.83;7.73;;;;;;;20.72;51.99;100024.06;7304393;19;130542;-36
2023/10/05 06:29:47;;;;;;;41.37;5.20;;;;;;;20.75;51.53;100036.88;7312516;19;130794;-34
2023/10/05 06:32:12;;;;;;;55.83;5.88;;;;;;;20.68;51.80;100015.66;7310964;19;131208;-36
2023/10/05 06:34:38;;;;;;;81.63;6.70;;;;;;;20.80;52.26;100024.28;7310618;19;130326;-34
2023/10/05 06:37:04;;;;;;;63.35;5.35;;;;;;;20.81;51.51;100025.94;7311002;19;129261;-36
2023/10/05 06:39:33;;;;;;;96.13;7.67;;;;;;;20.74;52.21;100027.41;7300570;19;130464;-36
2023/10/05 06:41:58;;;;;;;66.32;6.32;;;;;;;20.75;51.06;100031.66;7309582;19;130885;-36
2023/10/05 06:44:24;;;;;;;103.68;7.53;;;;;;;20.74;51.86;100035.25;7298182;19;129639;-37
2023/10/05 06:46:49;;;;;;;73.07;6.35;;;;;;;20.77;51.85;100034.16;7308613;19;130998;-36
2023/10/05 06:49:16;;;;;;;83.07;7.47;;;;;;;20.65;51.32;100023.75;7310626;19;129026;-35
2023/10/05 06:51:45;;;;;;;56.03;5.40;;;;;;;20.77;51.90;100045.44;7310193;19;130191;-34
2023/10/05 06:54:11;;;;;;;108.60;7.85;;;;;;;20.77;52.34;100040.22;7306326;19;130446;-37
2023/10/05 06:56:36;;;;;;;56.65;5.40;;;;;;;20.78;52.36;100041.88;7311790;19;129324;-39
2023/10/05 06:59:04;;;;;;;30.70;4.80;;;;;;;20.76;52.03;100032.50;7308557;19;130732;-34
2023/10/05 07:01:34;;;;;;;45.63;4.88;;;;;;;20.66;52.43;100017.56;7311905;19;130345;-36
2023/10/05 07:04:00;;;;;;;77.00;6.80;;;;;;;20.79;52.51;100037.47;7312635;19;130389;-33
2023/10/05 07:06:29;;;;;;;67.23;6.07;;;;;;;20.80;52.56;100034.75;7308784;19;129030;-38
2023/10/05 07:08:55;;;;;;;71.72;6.32;;;;;;;20.84;52.31;100030.09;7306891;19;133046;-41
2023/10/05 07:11:22;;;;;;;77.93;7.30;;;;;;;20.87;52.08;100033.31;7303636;19;131235;-38
2023/10/05 07:13:48;;;;;;;;;;;;;;;20.85;54.32;100042.19;7313139;19;130489;-35
2023/10/05 07:16:14;;;;;;;127.75;9.32;;;;;;;20.86;51.51;100042.06;7310159;19;128881;-42
2023/10/05 07:18:39;;;;;;;44.33;5.47;;;;;;;20.83;52.35;100052.78;7309231;19;129888;-36
2023/10/05 07:21:08;;;;;;;69.00;6.30;;;;;;;20.72;51.39;100037.16;7307824;19;130196;-38
2023/10/05 07:23:37;;;;;;;111.72;8.18;;;;;;;20.83;52.35;100054.56;7305526;19;131145;-37
2023/10/05 07:26:04;;;;;;;80.85;7.18;;;;;;;20.82;51.78;100060.75;7310801;19;129074;-37
2023/10/05 07:28:31;;;;;;;44.50;5.10;;;;;;;20.80;51.88;100057.41;7307037;19;129138;-36
2023/10/05 07:30:57;;;;;;;32.67;4.57;;;;;;;20.79;51.33;100053.16;7309707;19;130134;-35
2023/10/05 07:33:22;;;;;;;67.53;6.35;;;;;;;20.80;52.18;100054.81;7310880;19;131245;-35
2023/10/05 07:35:48;;;;;;;49.72;5.05;;;;;;;20.76;51.34;100056.03;7311691;19;128946;-37
2023/10/05 07:38:14;;;;;;;104.85;8.50;;;;;;;20.65;51.94;100035.97;7303030;19;129037;-40
2023/10/05 07:40:41;;;;;;;49.88;5.35;;;;;;;20.70;52.08;100044.28;7308473;19;130346;-38
2023/10/05 07:43:07;;;;;;;85.82;6.20;;;;;;;20.76;51.60;100059.44;7310840;19;130373;-35
2023/10/05 07:45:33;;;;;;;66.75;6.15;;;;;;;20.76;51.91;100058.63;7309498;19;129155;-35
2023/10/05 07:47:59;;;;;;;63.70;6.07;;;;;;;20.73;51.88;100070.16;7305279;19;129407;-35
2023/10/05 07:50:25;;;;;;;32.92;4.13;;;;;;;20.69;51.97;100063.53;7307391;19;130721;-36
2023/10/05 07:52:51;;;;;;;79.60;6.35;;;;;;;20.71;51.98;100066.81;7310784;19;130330;-35
2023/10/05 07:55:17;;;;;;;97.55;7.78;;;;;;;20.71;52.46;100072.88;7310756;19;129585;-33
2023/10/05 07:57:42;;;;;;;34.65;4.30;;;;;;;20.74;51.93;100077.06;7305896;19;128867;-36
2023/10/05 08:00:12;;;;;;;49.28;5.40;;;;;;;20.73;52.19;100081.44;7309916;19;130798;-34
2023/10/05 08:02:38;;;;;;;59.90;5.22;;;;;;;20.73;52.04;100080.59;7311335;19;130453;-37
2023/10/05 08:05:05;;;;;;;54.37;5.43;;;;;;;20.61;51.63;100060.66;7304292;19;130972;-37
2023/10/05 08:07:31;;;;;;;57.55;5.55;;;;;;;20.71;51.28;100085.09;7306656;19;129265;-36
2023/10/05 08:09:56;;;;;;;46.50;4.37;;;;;;;20.73;51.94;100083.22;7309242;19;129956;-37
2023/10/05 08:12:23;;;;;;;98.28;6.57;;;;;;;20.67;51.46;100091.53;7309233;19;129809;-34
2023/10/05 08:14:48;;;;;;;45.05;4.22;;;;;;;20.67;52.22;100076.72;7311078;19;129429;-38
2023/10/05 08:17:17;;;;;;;80.60;6.80;;;;;;;20.72;52.29;100084.19;7308720;19;128980;-33
2023/10/05 08:19:43;;;;;;;41.15;4.53;;;;;;;20.66;51.96;100074.19;7309515;19;130238;-38
2023/10/05 08:22:09;;;;;;;86.10;6.63;;;;;;;20.67;52.39;100075.88;7309984;19;130390;-34
2023/10/05 08:24:35;;;;;;;47.67;4.95;;;;;;;20.66;52.01;100079.41;7309936;19;129211;-40
2023/10/05 08:27:00;;;;;;;38.30;4.47;;;;;;;20.66;52.40;100090.72;7308182;19;128874;-33
2023/10/05 08:29:27;;;;;;;47.57;5.03;;;;;;;20.65;51.91;100088.22;7309293;19;131343;-35
2023/10/05 08:31:53;;;;;;;78.80;5.78;;;;;;;20.61;52.34;100094.63;7309383;19;130365;-36
2023/10/05 08:34:21;;;;;;;77.43;6.68;;;;;;;20.58;52.61;100076.59;7310417;19;129250;-35
2023/10/05 08:36:53;;;;;;;36.83;4.00;;;;;;;20.62;51.85;100083.25;7309488;19;128947;-37
2023/10/05 08:39:24;;;;;;;64.45;5.93;;;;;;;20.62;52.17;100078.03;7308165;19;130738;-35
2023/10/05 08:41:54;;;;;;;52.42;4.60;;;;;;;20.65;51.99;100083.00;7309471;19;130343;-36
2023/10/05 08:44:30;;;;;;;91.95;7.05;;;;;;;20.61;52.23;100069.34;7310013;19;129689;-34
2023/10/05 08:46:57;;;;;;;64.55;5.65;;;;;;;20.58;52.02;100077.44;7308758;19;129436;-36
2023/10/05 08:49:24;;;;;;;54.05;5.18;;;;;;;20.60;52.35;100075.53;7308705;19;130309;-35
2023/10/05 08:51:50;;;;;;;35.15;4.18;;;;;;;20.60;52.37;100079.91;7308997;19;130406;-37
2023/10/05 08:54:16;;;;;;;97.18;7.15;;;;;;;20.64;52.13;100081.34;7308836;19;129104;-35
2023/10/05 08:56:47;;;;;;;43.88;3.97;;;;;;;20.66;52.28;100084.63;7309185;19;128881;-38
2023/10/05 08:59:13;;;;;;;50.80;4.55;;;;;;;20.59;52.48;100091.31;7308960;19;130729;-35
2023/10/05 09:01:42;;;;;;;52.38;4.97;;;;;;;20.57;52.25;100088.00;7307716;19;129770;-35
2023/10/05 09:06:56;;;;;;;71.28;5.38;;;;;;;20.47;53.19;100074.00;7309218;19;129676;-35
2023/10/05 09:09:51;;;;;;;100.82;6.63;;;;;;;20.60;53.21;100106.03;7313966;19;130115;-38
2023/10/05 09:12:34;;;;;;;109.50;7.43;;;;;;;20.57;53.35;100103.66;7315975;19;130394;-38
2023/10/05 09:20:38;;;;;;;97.60;6.57;;;;;;;20.60;52.07;100100.81;7315381;19;129353;-38
2023/10/05 09:23:06;;;;;;;26.67;3.38;;;;;;;20.57;52.19;100099.28;7316788;19;130521;-36
2023/10/05 09:25:36;;;;;;;34.28;3.38;;;;;;;20.61;52.34;100107.69;7315611;19;128769;-33
2023/10/05 09:28:16;;;;;;;30.83;3.10;;;;;;;20.61;52.45;100105.06;7313117;19;128840;-37
2023/10/05 09:30:59;;;;;;;79.38;5.70;;;;;;;20.50;52.60;100095.50;7315404;19;130710;-36
2023/10/05 09:33:27;;;;;;;99.38;6.50;;;;;;;20.55;52.25;100108.19;7315254;19;131529;-35
2023/10/05 09:36:06;;;;;;;51.92;4.28;;;;;;;20.57;52.54;100111.50;7315540;19;129057;-36
2023/10/05 09:38:36;;;;;;;74.28;5.47;;;;;;;20.60;52.46;100111.25;7313875;19;129300;-35
2023/10/05 09:41:04;;;;;;;51.80;4.15;;;;;;;20.53;51.69;100105.69;7315772;19;130560;-36
2023/10/05 09:43:38;;;;;;;48.70;4.65;;;;;;;20.54;51.96;100106.53;7314827;19;130880;-35
2023/10/05 09:46:09;;;;;;;65.55;4.88;;;;;;;20.56;52.10;100096.81;7314154;19;129211;-34
2023/10/05 09:48:37;;;;;;;92.47;5.45;;;;;;;20.59;51.79;100104.38;7311525;19;130750;-36
2023/10/05 09:51:06;;;;;;;38.38;3.90;;;;;;;20.52;52.25;100095.38;7316351;19;129929;-34
2023/10/05 09:53:34;;;;;;;85.20;6.13;;;;;;;20.52;52.50;100092.75;7313554;19;131174;-37
2023/10/05 09:56:00;;;;;;;50.00;4.43;;;;;;;20.54;52.27;100106.53;7312940;19;128925;-37
2023/10/05 09:58:27;;;;;;;103.95;6.85;;;;;;;20.54;52.54;100098.69;7305585;19;129207;-36
2023/10/05 10:00:55;;;;;;;39.03;3.47;;;;;;;20.57;52.16;100093.22;7314290;19;129540;-35
2023/10/05 10:03:20;;;;;;;62.50;4.90;;;;;;;20.55;52.45;100097.72;7313234;19;130496;-34
2023/10/05 10:05:51;;;;;;;33.92;3.55;;;;;;;20.57;52.46;100090.63;7309919;19;131388;-34
2023/10/05 10:08:30;;;;;;;95.97;6.28;;;;;;;20.57;53.26;100085.38;7310984;19;129263;-35
2023/10/05 10:11:07;;;;;;;65.90;4.70;;;;;;;20.41;53.57;100085.75;7314192;19;130190;-35
2023/10/05 10:13:39;;;;;;;127.40;7.70;;;;;;;20.45;52.37;100070.66;7313266;19;130062;-35
2023/10/05 10:16:21;;;;;;;61.97;4.68;;;;;;;20.58;53.42;100087.88;7314800;19;130368;-34
2023/10/05 10:18:53;;;;;;;45.25;3.97;;;;;;;20.59;52.66;100086.91;7312523;19;129514;-35
2023/10/05 10:21:24;;;;;;;42.45;3.95;;;;;;;20.58;52.30;100082.66;7311520;19;131296;-33
2023/10/05 10:24:03;;;;;;;52.78;4.15;;;;;;;20.54;52.82;100091.66;7311009;19;131471;-37
2023/10/05 10:26:29;;;;;;;119.80;7.57;;;;;;;20.57;53.02;100074.94;7311961;19;129312;-34
2023/10/05 10:31:26;;;;;;;70.27;5.27;;;;;;;20.46;53.08;100061.91;7313014;19;129412;-33
2023/10/05 10:33:51;;;;;;;36.72;3.47;;;;;;;20.45;52.03;100065.44;7313261;19;130377;-36
2023/10/05 10:36:52;;;;;;;81.63;6.00;;;;;;;20.51;53.27;100096.31;7310459;19;128842;-34
2023/10/05 10:39:27;;;;;;;36.03;3.10;;;;;;;20.54;51.89;100107.34;7311928;19;129438;-35
2023/10/05 10:42:05;;;;;;;61.97;4.50;;;;;;;20.54;52.28;100096.09;7312433;19;130841;-35
2023/10/05 10:44:48;;;;;;;119.78;7.35;;;;;;;20.56;52.45;100095.00;7310448;19;130317;-36
2023/10/05 10:47:17;;;;;;;85.10;5.45;;;;;;;20.59;52.70;100093.94;7311838;19;129999;-34
2023/10/05 10:50:29;;;;;;;37.07;3.30;;;;;;;20.61;54.19;100097.25;7313584;19;129409;-38
2023/10/05 10:52:55;;;;;;;66.50;4.47;;;;;;;20.61;52.39;100089.41;7308494;19;131425;-36
2023/10/05 10:55:21;;;;;;;74.97;5.10;;;;;;;20.61;52.71;100084.19;7306813;19;130303;-36
2023/10/05 10:57:47;;;;;;;43.35;4.00;;;;;;;20.63;52.40;100093.56;7309186;19;130702;-36
2023/10/05 11:02:59;;;;;;;44.83;3.83;;;;;;;20.68;52.21;100078.34;7309386;19;129559;-36
2023/10/05 11:05:47;;;;;;;111.50;6.20;;;;;;;20.67;54.15;100081.94;7310015;19;129432;-33
2023/10/05 11:08:15;;;;;;;66.40;4.40;;;;;;;20.67;52.42;100081.09;7309795;19;129576;-35
2023/10/05 11:10:41;;;;;;;66.10;4.65;;;;;;;20.66;53.02;100084.63;7310947;19;129466;-37
2023/10/05 11:13:28;;;;;;;23.63;2.55;;;;;;;20.72;52.36;100079.75;7311382;19;130513;-38
2023/10/05 11:15:57;;;;;;;55.80;3.92;;;;;;;20.71;52.92;100082.50;7304087;19;130232;-36
2023/10/05 11:18:39;;;;;;;77.70;5.57;;;;;;;20.70;52.38;100075.63;7306415;19;130596;-40
2023/10/05 11:21:23;;;;;;;51.15;4.22;;;;;;;20.72;53.21;100084.19;7311200;19;129061;-39
2023/10/05 11:23:57;;;;;;;93.00;5.63;;;;;;;20.67;52.91;100076.72;7308176;19;130305;-36
2023/10/05 11:26:33;;;;;;;127.22;7.85;;;;;;;20.70;52.88;100078.22;7306583;19;131107;-40
2023/10/05 11:29:07;;;;;;;108.38;6.55;;;;;;;20.71;53.84;100079.88;7306461;19;129191;-37
2023/10/05 11:31:34;;;;;;;72.05;4.90;;;;;;;20.72;53.05;100099.84;7310846;19;129312;-34
2023/10/05 11:34:12;;;;;;;53.53;4.07;;;;;;;20.72;53.54;100084.19;7310457;19;131229;-35
2023/10/05 11:36:44;;;;;;;106.38;6.70;;;;;;;20.67;52.65;100060.19;7307527;19;130481;-35
2023/10/05 11:39:26;;;;;;;95.13;5.90;;;;;;;20.76;53.21;100076.94;7301131;19;133602;-34
2023/10/05 11:41:51;;;;;;;68.45;4.57;;;;;;;20.77;52.38;100076.81;7307713;19;130782;-38
2023/10/05 11:44:23;;;;;;;73.80;5.25;;;;;;;20.77;53.29;100076.81;7307485;19;131252;-34